createdAt,value
2023-04-03T00:00:44.966Z,7.80
2023-04-03T00:03:15.384Z,7.60
2023-04-03T00:05:44.389Z,8.60
2023-04-03T00:08:13.312Z,7.60
2023-04-03T00:10:45.568Z,7.60
2023-04-03T00:13:14.957Z,9.00
2023-04-03T00:15:44.856Z,7.40
2023-04-03T00:18:15.404Z,7.60
2023-04-03T00:20:44.422Z,7.70
2023-04-03T00:23:13.430Z,7.50
2023-04-03T00:25:44.901Z,7.60
2023-04-03T00:28:14.864Z,7.50
2023-04-03T00:30:44.256Z,7.50
2023-04-03T00:33:15.999Z,8.60
2023-04-03T00:35:45.803Z,7.50
2023-04-03T00:38:16.814Z,7.50
2023-04-03T00:40:50.589Z,7.70
2023-04-03T00:43:23.189Z,7.60
2023-04-03T00:45:54.880Z,7.60
2023-04-03T00:48:30.178Z,7.60
2023-04-03T00:51:00.563Z,8.60
2023-04-03T00:53:34.120Z,7.50
2023-04-03T00:56:03.286Z,7.50
2023-04-03T00:58:41.809Z,8.80
2023-04-03T01:01:19.381Z,7.80
2023-04-03T01:03:50.074Z,7.50
2023-04-03T01:06:26.617Z,7.50
2023-04-03T01:08:56.950Z,7.50
2023-04-03T01:11:27.258Z,8.60
2023-04-03T01:13:56.981Z,8.70
2023-04-03T01:16:29.253Z,7.50
2023-04-03T01:19:02.211Z,7.30
2023-04-03T01:22:12.180Z,7.30
2023-04-03T01:24:42.607Z,7.40
2023-04-03T01:27:14.600Z,7.40
2023-04-03T01:29:45.590Z,7.40
2023-04-03T01:32:15.911Z,7.40
2023-04-03T01:34:44.792Z,7.40
2023-04-03T01:37:17.256Z,7.30
2023-04-03T01:39:46.117Z,7.80
2023-04-03T01:42:15.076Z,8.00
2023-04-03T01:44:45.938Z,8.40
2023-04-03T01:47:16.047Z,7.50
2023-04-03T01:49:45.169Z,7.30
2023-04-03T01:52:14.106Z,7.30
2023-04-03T01:54:43.718Z,7.30
2023-04-03T01:57:12.971Z,8.10
2023-04-03T01:59:43.909Z,7.40
2023-04-03T02:02:13.828Z,8.00
2023-04-03T02:04:45.046Z,7.50
2023-04-03T02:07:14.432Z,7.30
2023-04-03T02:09:46.193Z,7.40
2023-04-03T02:12:15.993Z,7.20
2023-04-03T02:14:47.922Z,7.10
2023-04-03T02:17:17.630Z,7.40
2023-04-03T02:19:48.843Z,7.30
2023-04-03T02:22:18.128Z,8.50
2023-04-03T02:24:47.023Z,7.30
2023-04-03T02:27:17.309Z,6.90
2023-04-03T02:29:46.494Z,8.20
2023-04-03T02:32:15.743Z,6.70
2023-04-03T02:34:45.376Z,7.30
2023-04-03T02:37:17.856Z,7.20
2023-04-03T02:39:48.725Z,7.30
2023-04-03T02:42:17.598Z,8.00
2023-04-03T02:44:46.264Z,7.30
2023-04-03T02:47:14.796Z,7.30
2023-04-03T02:49:44.786Z,7.30
2023-04-03T02:52:13.348Z,7.70
2023-04-03T02:54:43.475Z,7.20
2023-04-03T02:57:13.613Z,7.20
2023-04-03T02:59:42.281Z,7.20
2023-04-03T03:02:13.838Z,7.20
2023-04-03T03:04:43.902Z,7.60
2023-04-03T03:07:13.367Z,7.00
2023-04-03T03:09:44.723Z,7.10
2023-04-03T03:12:13.892Z,7.30
2023-04-03T03:14:46.191Z,7.40
2023-04-03T03:17:14.820Z,7.10
2023-04-03T03:19:43.747Z,7.30
2023-04-03T03:22:12.554Z,7.10
2023-04-03T03:24:42.392Z,7.00
2023-04-03T03:27:11.409Z,7.00
2023-04-03T03:29:40.085Z,7.00
2023-04-03T03:32:08.818Z,7.00
2023-04-03T03:34:37.360Z,7.00
2023-04-03T03:37:05.862Z,7.00
2023-04-03T03:39:34.286Z,7.00
2023-04-03T03:42:04.412Z,7.00
2023-04-03T03:44:33.095Z,6.90
2023-04-03T03:47:01.901Z,7.40
2023-04-03T03:49:31.431Z,6.90
2023-04-03T03:52:00.995Z,6.90
2023-04-03T03:54:29.761Z,6.80
2023-04-03T03:56:58.431Z,6.80
2023-04-03T03:59:28.908Z,6.80
2023-04-03T04:01:57.967Z,6.80
2023-04-03T04:04:27.178Z,6.80
2023-04-03T04:06:57.264Z,6.80
2023-04-03T04:09:27.198Z,6.80
2023-04-03T04:11:56.630Z,7.20
2023-04-03T04:14:26.477Z,6.90
2023-04-03T04:16:58.019Z,6.60
2023-04-03T04:19:29.399Z,7.10
2023-04-03T04:21:58.948Z,6.60
2023-04-03T04:24:28.288Z,6.40
2023-04-03T04:26:59.017Z,6.60
2023-04-03T04:29:28.253Z,6.50
2023-04-03T04:31:58.682Z,6.80
2023-04-03T04:34:27.359Z,6.30
2023-04-03T04:36:55.912Z,6.60
2023-04-03T04:39:25.888Z,6.80
2023-04-03T04:41:58.108Z,6.30
2023-04-03T04:44:28.907Z,6.80
2023-04-03T04:47:01.735Z,6.30
2023-04-03T04:49:30.351Z,6.50
2023-04-03T04:51:58.837Z,6.20
2023-04-03T04:54:31.520Z,6.80
2023-04-03T04:57:00.722Z,6.10
2023-04-03T04:59:30.818Z,6.10
2023-04-03T05:02:02.182Z,6.00
2023-04-03T05:04:31.356Z,6.00
2023-04-03T05:07:06.569Z,5.90
2023-04-03T05:09:38.333Z,5.90
2023-04-03T05:12:07.772Z,5.90
2023-04-03T05:14:43.485Z,5.80
2023-04-03T05:17:44.258Z,6.20
2023-04-03T05:20:15.945Z,5.70
2023-04-03T05:22:47.216Z,5.70
2023-04-03T05:25:16.722Z,5.70
2023-04-03T05:27:46.458Z,5.60
2023-04-03T05:30:17.237Z,5.60
2023-04-03T05:32:48.229Z,5.60
2023-04-03T05:35:26.535Z,5.50
2023-04-03T05:37:59.034Z,5.50
2023-04-03T05:40:27.775Z,5.50
2023-04-03T05:43:23.159Z,5.50
2023-04-03T05:45:53.462Z,6.60
2023-04-03T05:48:25.226Z,5.40
2023-04-03T05:50:55.728Z,5.60
2023-04-03T05:53:31.706Z,5.30
2023-04-03T05:56:03.418Z,5.30
2023-04-03T05:58:35.766Z,5.30
2023-04-03T06:01:04.605Z,5.30
2023-04-03T06:03:34.885Z,5.30
2023-04-03T06:06:06.762Z,5.70
2023-04-03T06:08:36.029Z,5.30
2023-04-03T06:11:04.530Z,5.30
2023-04-03T06:13:32.931Z,5.30
2023-04-03T06:16:01.809Z,5.30
2023-04-03T06:18:30.212Z,5.30
2023-04-03T06:21:01.878Z,5.30
2023-04-03T06:23:30.353Z,5.30
2023-04-03T06:25:59.391Z,5.40
2023-04-03T06:28:28.322Z,5.50
2023-04-03T06:30:56.804Z,5.40
2023-04-03T06:33:25.459Z,5.40
2023-04-03T06:36:00.395Z,5.40
2023-04-03T06:38:28.798Z,5.40
2023-04-03T06:40:57.156Z,5.50
2023-04-03T06:43:25.717Z,5.60
2023-04-03T06:45:55.394Z,5.60
2023-04-03T06:48:24.251Z,5.60
2023-04-03T06:50:52.649Z,5.60
2023-04-03T06:53:22.453Z,5.60
2023-04-03T06:55:51.106Z,6.20
2023-04-03T06:58:21.742Z,5.70
2023-04-03T07:00:51.156Z,5.80
2023-04-03T07:03:19.610Z,5.80
2023-04-03T07:05:47.937Z,5.80
2023-04-03T07:08:16.398Z,5.90
2023-04-03T07:10:46.309Z,6.00
2023-04-03T07:13:14.689Z,6.00
2023-04-03T07:15:43.135Z,6.00
2023-04-03T07:18:11.499Z,6.00
2023-04-03T07:20:41.249Z,6.00
2023-04-03T07:23:09.645Z,6.00
2023-04-03T07:25:38.805Z,6.10
2023-04-03T07:28:09.267Z,6.10
2023-04-03T07:30:44.587Z,6.10
2023-04-03T07:33:14.143Z,6.40
2023-04-03T07:35:43.398Z,6.20
2023-04-03T07:38:12.367Z,6.20
2023-04-03T07:40:40.965Z,6.30
2023-04-03T07:43:10.669Z,6.30
2023-04-03T07:45:40.435Z,6.30
2023-04-03T07:48:09.254Z,6.50
2023-04-03T07:50:37.703Z,6.40
2023-04-03T07:53:06.818Z,6.30
2023-04-03T07:55:35.338Z,6.40
2023-04-03T07:58:04.312Z,6.40
2023-04-03T08:00:33.977Z,6.40
2023-04-03T08:03:02.730Z,6.40
2023-04-03T08:05:31.221Z,6.40
2023-04-03T08:07:59.583Z,6.40
2023-04-03T08:10:27.920Z,6.40
2023-04-03T08:12:56.269Z,6.70
2023-04-03T08:15:24.699Z,6.50
2023-04-03T08:17:54.581Z,6.50
2023-04-03T08:20:23.222Z,6.50
2023-04-03T08:22:51.511Z,6.50
2023-04-03T08:25:20.088Z,6.90
2023-04-03T08:27:48.634Z,6.60
2023-04-03T08:30:17.071Z,6.80
2023-04-03T08:32:45.966Z,7.00
2023-04-03T08:35:16.120Z,6.60
2023-04-03T08:37:44.468Z,6.70
2023-04-03T08:40:18.731Z,6.70
2023-04-03T08:42:59.639Z,6.70
2023-04-03T08:45:44.192Z,6.80
2023-04-03T08:48:18.278Z,6.80
2023-04-03T08:50:53.089Z,6.80
2023-04-03T08:53:27.781Z,7.00
2023-04-03T08:55:58.991Z,7.00
2023-04-03T08:58:30.815Z,7.00
2023-04-03T09:01:03.810Z,7.10
2023-04-03T09:03:34.671Z,7.30
2023-04-03T09:06:09.194Z,7.20
2023-04-03T09:08:43.183Z,7.10
2023-04-03T09:11:23.031Z,7.10
2023-04-03T09:13:59.821Z,7.10
2023-04-03T09:16:38.648Z,7.50
2023-04-03T09:19:20.738Z,7.30
2023-04-03T09:21:50.707Z,7.20
2023-04-03T09:24:20.280Z,7.50
2023-04-03T09:26:56.027Z,7.20
2023-04-03T09:29:26.001Z,7.10
2023-04-03T09:31:59.910Z,7.10
2023-04-03T09:34:30.767Z,7.10
2023-04-03T09:37:06.810Z,7.10
2023-04-03T09:39:52.574Z,7.10
2023-04-03T09:42:23.520Z,7.10
2023-04-03T09:44:58.451Z,7.20
2023-04-03T09:47:29.170Z,7.30
2023-04-03T09:50:24.284Z,7.40
2023-04-03T09:52:54.227Z,7.40
2023-04-03T09:55:29.730Z,7.70
2023-04-03T09:58:01.628Z,7.70
2023-04-03T10:00:36.394Z,7.60
2023-04-03T10:03:06.190Z,7.70
2023-04-03T10:05:38.399Z,7.70
2023-04-03T10:08:22.789Z,8.10
2023-04-03T10:11:11.086Z,7.80
2023-04-03T10:13:53.614Z,7.80
2023-04-03T10:16:28.590Z,7.90
2023-04-03T10:19:21.657Z,8.00
2023-04-03T10:21:56.668Z,8.10
2023-04-03T10:24:37.354Z,8.40
2023-04-03T10:27:13.519Z,8.40
2023-04-03T10:29:49.695Z,8.40
2023-04-03T10:32:51.474Z,8.50
2023-04-03T10:35:44.534Z,8.60
2023-04-03T10:38:22.680Z,8.70
2023-04-03T10:41:02.080Z,8.70
2023-04-03T10:43:38.950Z,8.70
2023-04-03T10:46:16.643Z,8.70
2023-04-03T10:49:12.535Z,9.00
2023-04-03T10:51:46.562Z,8.80
2023-04-03T10:54:19.813Z,8.90
2023-04-03T10:57:04.389Z,9.00
2023-04-03T10:59:44.180Z,9.10
2023-04-03T11:02:23.225Z,9.20
2023-04-03T11:04:58.286Z,9.30
2023-04-03T11:07:32.786Z,9.50
2023-04-03T11:10:07.591Z,9.60
2023-04-03T11:12:47.908Z,9.70
2023-04-03T11:15:21.824Z,9.70
2023-04-03T11:17:55.691Z,9.70
2023-04-03T11:20:29.608Z,9.80
2023-04-03T11:23:05.090Z,9.80
2023-04-03T11:25:37.039Z,9.80
2023-04-03T11:28:12.096Z,9.80
2023-04-03T11:30:49.380Z,9.90
2023-04-03T11:33:50.396Z,9.80
2023-04-03T11:36:29.528Z,10.10
2023-04-03T11:39:12.248Z,10.10
2023-04-03T11:41:40.990Z,10.10
2023-04-03T11:44:33.002Z,10.00
2023-04-03T11:47:03.329Z,10.00
2023-04-03T11:50:01.645Z,10.00
2023-04-03T11:52:59.344Z,10.00
2023-04-03T11:56:06.603Z,9.90
2023-04-03T11:58:38.040Z,9.90
2023-04-03T12:01:12.826Z,9.90
2023-04-03T12:04:14.977Z,10.00
2023-04-03T12:07:15.893Z,10.10
2023-04-03T12:10:31.127Z,10.30
2023-04-03T12:13:16.402Z,10.30
2023-04-03T12:15:55.286Z,10.30
2023-04-03T12:18:59.457Z,10.30
2023-04-03T12:22:16.958Z,10.30
2023-04-03T12:24:49.435Z,10.20
2023-04-03T12:27:37.165Z,10.10
2023-04-03T12:30:21.180Z,10.10
2023-04-03T12:33:19.820Z,10.00
2023-04-03T12:36:03.703Z,10.00
2023-04-03T12:39:04.325Z,10.00
2023-04-03T12:41:41.056Z,10.10
2023-04-03T12:44:41.494Z,10.00
2023-04-03T12:47:26.572Z,10.00
2023-04-03T12:49:56.216Z,10.00
2023-04-03T12:52:39.459Z,10.00
2023-04-03T12:55:18.251Z,10.00
2023-04-03T12:57:47.218Z,9.90
2023-04-03T13:00:35.315Z,9.90
2023-04-03T13:03:06.182Z,9.90
2023-04-03T13:05:37.240Z,9.80
2023-04-03T13:08:08.853Z,9.80
2023-04-03T13:10:56.469Z,9.90
2023-04-03T13:13:27.345Z,9.90
2023-04-03T13:15:56.712Z,10.00
2023-04-03T13:18:29.203Z,10.10
2023-04-03T13:21:05.238Z,10.10
2023-04-03T13:23:36.927Z,10.20
2023-04-03T13:26:07.631Z,10.20
2023-04-03T13:28:37.020Z,10.20
2023-04-03T13:31:12.718Z,10.20
2023-04-03T13:33:43.949Z,10.20
2023-04-03T13:36:22.964Z,10.20
2023-04-03T13:39:02.712Z,10.40
2023-04-03T13:41:35.585Z,10.30
2023-04-03T13:44:32.648Z,10.30
2023-04-03T13:47:03.509Z,10.30
2023-04-03T13:49:36.522Z,10.30
2023-04-03T13:52:24.381Z,10.20
2023-04-03T13:54:57.403Z,10.20
2023-04-03T13:57:28.166Z,10.20
2023-04-03T13:59:56.894Z,10.10
2023-04-03T14:02:34.089Z,10.00
2023-04-03T14:05:05.041Z,10.00
2023-04-03T14:07:33.562Z,9.90
2023-04-03T14:10:01.885Z,9.90
2023-04-03T14:12:37.225Z,9.80
2023-04-03T14:15:18.583Z,9.80
2023-04-03T14:17:47.098Z,9.80
2023-04-03T14:20:18.597Z,9.80
2023-04-03T14:22:47.508Z,9.70
2023-04-03T14:25:16.385Z,9.60
2023-04-03T14:27:49.860Z,9.60
2023-04-03T14:30:21.841Z,9.50
2023-04-03T14:32:50.661Z,9.50
2023-04-03T14:35:20.754Z,9.30
2023-04-03T14:37:50.437Z,9.30
2023-04-03T14:40:22.652Z,9.20
2023-04-03T14:42:56.026Z,9.20
2023-04-03T14:45:25.055Z,9.20
2023-04-03T14:47:56.366Z,9.20
2023-04-03T14:50:28.272Z,9.10
2023-04-03T14:52:59.776Z,9.10
2023-04-03T14:55:29.259Z,9.10
2023-04-03T14:57:59.341Z,9.10
2023-04-03T15:00:27.795Z,9.10
2023-04-03T15:02:56.474Z,9.20
2023-04-03T15:05:24.978Z,9.10
2023-04-03T15:07:57.414Z,9.20
2023-04-03T15:10:28.803Z,9.20
2023-04-03T15:12:58.809Z,9.10
2023-04-03T15:15:32.086Z,9.30
2023-04-03T15:18:00.790Z,9.00
2023-04-03T15:20:34.172Z,9.20
2023-04-03T15:23:03.625Z,9.50
2023-04-03T15:25:32.321Z,8.90
2023-04-03T15:28:02.835Z,8.90
2023-04-03T15:30:32.119Z,8.90
2023-04-03T15:33:01.162Z,8.80
2023-04-03T15:35:29.588Z,8.90
2023-04-03T15:37:57.990Z,8.90
2023-04-03T15:40:26.710Z,9.00
2023-04-03T15:42:55.058Z,8.90
2023-04-03T15:45:24.984Z,8.90
2023-04-03T15:47:53.472Z,8.90
2023-04-03T15:50:23.813Z,8.90
2023-04-03T15:52:55.317Z,9.10
2023-04-03T15:55:24.093Z,8.80
2023-04-03T15:57:53.796Z,8.90
2023-04-03T16:00:24.533Z,8.90
2023-04-03T16:02:58.519Z,8.90
2023-04-03T16:05:27.324Z,8.90
2023-04-03T16:07:56.425Z,8.90
2023-04-03T16:10:25.992Z,8.90
2023-04-03T16:12:54.511Z,8.90
2023-04-03T16:15:25.207Z,8.90
2023-04-03T16:17:54.868Z,8.80
2023-04-03T16:20:23.669Z,9.00
2023-04-03T16:22:52.232Z,8.70
2023-04-03T16:25:21.455Z,8.70
2023-04-03T16:27:49.880Z,8.60
2023-04-03T16:30:18.556Z,8.50
2023-04-03T16:32:48.630Z,8.50
2023-04-03T16:35:17.131Z,8.40
2023-04-03T16:37:45.486Z,8.50
2023-04-03T16:40:14.351Z,8.40
2023-04-03T16:42:43.463Z,8.30
2023-04-03T16:45:12.436Z,8.40
2023-04-03T16:47:40.863Z,8.30
2023-04-03T16:50:11.892Z,8.30
2023-04-03T16:52:40.913Z,8.20
2023-04-03T16:55:10.921Z,8.20
2023-04-03T16:57:39.339Z,8.20
2023-04-03T17:00:09.863Z,8.20
2023-04-03T17:02:38.264Z,8.10
2023-04-03T17:05:07.858Z,8.30
2023-04-03T17:07:37.566Z,8.10
2023-04-03T17:10:07.457Z,8.10
2023-04-03T17:12:35.994Z,8.10
2023-04-03T17:15:04.767Z,8.00
2023-04-03T17:17:33.598Z,8.00
2023-04-03T17:20:02.181Z,8.00
2023-04-03T17:22:30.975Z,8.00
2023-04-03T17:25:00.945Z,7.90
2023-04-03T17:27:29.349Z,8.10
2023-04-03T17:29:57.870Z,7.90
2023-04-03T17:32:26.719Z,7.80
2023-04-03T17:34:55.393Z,7.80
2023-04-03T17:37:23.742Z,7.70
2023-04-03T17:39:52.023Z,7.70
2023-04-03T17:42:21.891Z,7.80
2023-04-03T17:44:50.258Z,7.70
2023-04-03T17:47:18.672Z,7.60
2023-04-03T17:49:47.036Z,7.60
2023-04-03T17:52:15.307Z,7.60
2023-04-03T17:54:43.857Z,7.60
2023-04-03T17:57:12.251Z,7.50
2023-04-03T17:59:41.968Z,7.70
2023-04-03T18:02:10.292Z,7.50
2023-04-03T18:04:38.776Z,7.50
2023-04-03T18:07:09.891Z,7.40
2023-04-03T18:09:40.957Z,7.40
2023-04-03T18:12:10.676Z,7.40
2023-04-03T18:14:41.819Z,7.70
2023-04-03T18:17:10.165Z,7.30
2023-04-03T18:19:38.705Z,7.30
2023-04-03T18:22:13.412Z,7.30
2023-04-03T18:24:43.622Z,7.70
2023-04-03T18:27:15.500Z,7.40
2023-04-03T18:29:50.528Z,7.30
2023-04-03T18:32:21.949Z,7.10
2023-04-03T18:34:50.503Z,7.10
2023-04-03T18:37:19.000Z,7.10
2023-04-03T18:39:47.521Z,7.30
2023-04-03T18:42:18.513Z,7.10
2023-04-03T18:44:52.926Z,7.20
2023-04-03T18:47:21.550Z,7.10
2023-04-03T18:49:50.046Z,7.20
2023-04-03T18:52:18.403Z,7.00
2023-04-03T18:54:46.789Z,7.00
2023-04-03T18:57:15.265Z,6.90
2023-04-03T18:59:43.767Z,7.10
2023-04-03T19:02:16.625Z,6.90
2023-04-03T19:04:46.425Z,6.80
2023-04-03T19:07:15.841Z,6.80
2023-04-03T19:09:44.528Z,7.00
2023-04-03T19:12:13.322Z,6.70
2023-04-03T19:14:42.095Z,6.70
2023-04-03T19:17:10.673Z,6.80
2023-04-03T19:19:40.868Z,6.80
2023-04-03T19:22:09.407Z,6.80
2023-04-03T19:24:38.316Z,6.80
2023-04-03T19:27:06.689Z,6.80
2023-04-03T19:29:35.125Z,6.80
2023-04-03T19:32:03.529Z,6.80
2023-04-03T19:34:31.849Z,6.80
2023-04-03T19:37:02.349Z,6.80
2023-04-03T19:39:35.118Z,6.90
2023-04-03T19:42:03.808Z,6.90
2023-04-03T19:44:33.539Z,6.90
2023-04-03T19:47:02.945Z,6.90
2023-04-03T19:49:31.759Z,6.90
2023-04-03T19:52:01.498Z,7.20
2023-04-03T19:54:29.895Z,6.90
2023-04-03T19:56:59.010Z,6.90
2023-04-03T19:59:28.241Z,7.20
2023-04-03T20:01:57.576Z,6.90
2023-04-03T20:04:26.166Z,6.90
2023-04-03T20:06:54.514Z,6.90
2023-04-03T20:09:24.316Z,6.90
2023-04-03T20:11:53.852Z,6.90
2023-04-03T20:14:22.357Z,6.90
2023-04-03T20:16:52.741Z,7.00
2023-04-03T20:19:26.939Z,6.80
2023-04-03T20:21:56.047Z,7.00
2023-04-03T20:24:28.909Z,6.90
2023-04-03T20:26:58.639Z,6.80
2023-04-03T20:29:27.835Z,6.80
2023-04-03T20:31:56.324Z,6.80
2023-04-03T20:34:24.708Z,6.80
2023-04-03T20:36:53.559Z,6.80
2023-04-03T20:39:24.550Z,6.80
2023-04-03T20:41:54.656Z,6.80
2023-04-03T20:44:23.402Z,7.20
2023-04-03T20:46:53.430Z,7.30
2023-04-03T20:49:23.318Z,6.80
2023-04-03T20:51:52.306Z,6.80
2023-04-03T20:54:21.769Z,6.80
2023-04-03T20:56:50.462Z,6.70
2023-04-03T20:59:20.848Z,6.90
2023-04-03T21:01:50.150Z,6.90
2023-04-03T21:04:26.746Z,6.80
2023-04-03T21:07:51.162Z,6.70
2023-04-03T21:11:16.218Z,6.70
2023-04-03T21:14:41.721Z,6.70
2023-04-03T21:17:09.761Z,6.70
2023-04-03T21:19:46.247Z,6.70
2023-04-03T21:22:16.404Z,6.70
2023-04-03T21:24:45.470Z,6.70
2023-04-03T21:27:14.023Z,6.70
2023-04-03T21:29:43.172Z,6.70
2023-04-03T21:32:12.130Z,6.70
2023-04-03T21:34:41.905Z,6.70
2023-04-03T21:37:11.883Z,6.80
2023-04-03T21:39:40.880Z,6.70
2023-04-03T21:42:09.189Z,6.70
2023-04-03T21:44:38.226Z,6.70
2023-04-03T21:47:07.649Z,7.00
2023-04-03T21:49:36.205Z,6.60
2023-04-03T21:52:06.282Z,6.60
2023-04-03T21:54:34.833Z,6.60
2023-04-03T21:57:03.148Z,6.60
2023-04-03T21:59:31.783Z,6.50
2023-04-03T22:02:00.672Z,6.90
2023-04-03T22:04:30.272Z,6.60
2023-04-03T22:06:59.728Z,6.70
2023-04-03T22:09:29.434Z,6.60
2023-04-03T22:11:57.696Z,6.60
2023-04-03T22:14:26.249Z,6.60
2023-04-03T22:16:54.815Z,6.60
2023-04-03T22:19:23.594Z,6.60
2023-04-03T22:21:52.835Z,7.00
2023-04-03T22:24:21.134Z,6.80
2023-04-03T22:26:50.740Z,6.90
2023-04-03T22:29:19.222Z,6.60
2023-04-03T22:31:47.566Z,6.70
2023-04-03T22:34:16.804Z,6.70
2023-04-03T22:36:45.443Z,6.70
2023-04-03T22:39:15.291Z,6.70
2023-04-03T22:41:45.302Z,6.70
2023-04-03T22:44:17.851Z,6.70
2023-04-03T22:46:46.353Z,6.70
2023-04-03T22:49:15.007Z,7.10
2023-04-03T22:51:43.280Z,6.70
2023-04-03T22:54:11.626Z,6.70
2023-04-03T22:56:39.968Z,6.70
2023-04-03T22:59:08.357Z,6.60
2023-04-03T23:01:39.515Z,6.70
2023-04-03T23:04:07.991Z,6.70
2023-04-03T23:06:36.761Z,6.60
2023-04-03T23:09:05.296Z,6.60
2023-04-03T23:11:33.662Z,6.60
2023-04-03T23:14:03.117Z,6.60
2023-04-03T23:16:31.479Z,6.80
2023-04-03T23:19:01.733Z,6.70
2023-04-03T23:21:30.006Z,7.20
2023-04-03T23:23:58.686Z,6.70
2023-04-03T23:26:27.073Z,6.70
2023-04-03T23:28:55.386Z,6.70
2023-04-03T23:31:25.850Z,6.70
2023-04-03T23:33:54.417Z,6.70
2023-04-03T23:36:24.077Z,6.70
2023-04-03T23:38:52.373Z,6.70
2023-04-03T23:41:20.970Z,6.70
2023-04-03T23:43:49.868Z,6.70
2023-04-03T23:46:18.392Z,6.80
2023-04-03T23:48:46.880Z,6.70
2023-04-03T23:51:15.286Z,7.10
2023-04-03T23:53:44.936Z,6.70
2023-04-03T23:56:13.303Z,6.80
2023-04-03T23:58:41.666Z,6.80
